Time;durP1;ratioP1;P1;durP2;ratioP2;P2;SDS_P1;SDS_P2;PMS_P1;PMS_P2;Temp;Humidity;BMP_temperature;BMP_pressure;BME280_temperature;BME280_humidity;BME280_pressure;Samples;Min_cycle;Max_cycle;Signal;HPM_P1;HPM_P2
2021/10/20 00:00:38;;;;;;;24.25;12.18;;;;;;;;;;5031177;28;20033;-70
2021/10/20 00:03:04;;;;;;;23.45;13.52;;;;;;;;;;5028179;28;20124;-70
2021/10/20 00:05:30;;;;;;;21.17;12.02;;;;;;;;;;5028125;28;20113;-71
2021/10/20 00:07:57;;;;;;;19.25;12.73;;;;;;;;;;5028417;28;20045;-71
2021/10/20 00:10:23;;;;;;;22.08;13.00;;;;;;;;;;5030172;28;20034;-71
2021/10/20 00:12:50;;;;;;;23.10;12.40;;;;;;;;;;5027524;28;20030;-70
2021/10/20 00:15:17;;;;;;;21.63;12.32;;;;;;;;;;5028148;28;20474;-71
2021/10/20 00:17:43;;;;;;;19.52;11.38;;;;;;;;;;5026478;28;20022;-70
2021/10/20 00:20:13;;;;;;;24.25;12.23;;;;;;;;;;5026573;28;20040;-70
2021/10/20 00:22:39;;;;;;;21.90;12.68;;;;;;;;;;5025450;28;20104;-70
2021/10/20 00:25:05;;;;;;;19.60;12.48;;;;;;;;;;5026626;28;20026;-70
2021/10/20 00:27:32;;;;;;;23.83;14.13;;;;;;;;;;5028897;28;20080;-71
2021/10/20 00:29:58;;;;;;;22.58;13.27;;;;;;;;;;5025626;28;20021;-70
2021/10/20 00:32:24;;;;;;;28.55;13.77;;;;;;;;;;5025498;28;20025;-70
2021/10/20 00:34:51;;;;;;;23.02;13.20;;;;;;;;;;5028187;28;20025;-70
2021/10/20 00:37:17;;;;;;;21.75;13.35;;;;;;;;;;5028182;28;20108;-70
2021/10/20 00:39:43;;;;;;;21.27;12.35;;;;;;;;;;5025520;28;20068;-71
2021/10/20 00:42:09;;;;;;;21.63;13.48;;;;;;;;;;5029941;28;20553;-70
2021/10/20 00:45:04;;;;;;;19.67;13.05;;;;;;;;;;5025051;28;20056;-70
2021/10/20 00:47:31;;;;;;;23.25;14.13;;;;;;;;;;5011922;28;20131;-70
2021/10/20 00:49:57;;;;;;;24.70;13.20;;;;;;;;;;5025815;28;20477;-69
2021/10/20 00:52:24;;;;;;;23.88;13.10;;;;;;;;;;5028634;28;20063;-70
2021/10/20 00:54:53;;;;;;;22.90;12.57;;;;;;;;;;5029810;28;20092;-71
2021/10/20 00:57:19;;;;;;;21.05;13.23;;;;;;;;;;5021053;28;20018;-70
2021/10/20 00:59:45;;;;;;;21.50;14.13;;;;;;;;;;5027913;28;20132;-70
2021/10/20 01:02:11;;;;;;;21.67;13.90;;;;;;;;;;5028775;28;20029;-70
2021/10/20 01:04:37;;;;;;;23.83;14.13;;;;;;;;;;5029450;28;20033;-70
2021/10/20 01:07:04;;;;;;;23.05;13.63;;;;;;;;;;5023537;28;20030;-70
2021/10/20 01:09:30;;;;;;;20.48;11.77;;;;;;;;;;5028679;28;20060;-70
2021/10/20 01:11:57;;;;;;;21.70;12.05;;;;;;;;;;5028824;28;20569;-70
2021/10/20 01:14:23;;;;;;;22.85;12.70;;;;;;;;;;5030007;28;20096;-70
2021/10/20 01:16:49;;;;;;;23.80;13.20;;;;;;;;;;5028913;28;20025;-70
2021/10/20 01:19:16;;;;;;;23.52;12.43;;;;;;;;;;5026879;28;20037;-69
2021/10/20 01:21:42;;;;;;;22.88;12.73;;;;;;;;;;5027914;28;20026;-70
2021/10/20 01:24:08;;;;;;;19.42;13.40;;;;;;;;;;5028919;28;20108;-70
2021/10/20 01:26:34;;;;;;;22.48;13.25;;;;;;;;;;5034695;28;20051;-70
2021/10/20 01:29:01;;;;;;;20.13;12.65;;;;;;;;;;5023955;28;20108;-71
2021/10/20 01:31:27;;;;;;;21.23;13.60;;;;;;;;;;5029275;28;20021;-70
2021/10/20 01:33:53;;;;;;;22.02;12.75;;;;;;;;;;5025060;28;20091;-69
2021/10/20 01:36:19;;;;;;;21.27;13.07;;;;;;;;;;5028108;28;20013;-70
2021/10/20 01:38:45;;;;;;;21.05;14.23;;;;;;;;;;5026270;28;20075;-70
2021/10/20 01:41:11;;;;;;;23.88;12.95;;;;;;;;;;5027711;28;20411;-70
2021/10/20 01:43:48;;;;;;;19.60;13.27;;;;;;;;;;5029743;28;20032;-70
2021/10/20 01:46:21;;;;;;;22.42;14.20;;;;;;;;;;5028475;28;20113;-70
2021/10/20 01:48:48;;;;;;;22.65;13.82;;;;;;;;;;5025944;28;20440;-70
2021/10/20 01:51:15;;;;;;;23.95;14.23;;;;;;;;;;5029531;28;20037;-70
2021/10/20 01:53:41;;;;;;;19.25;13.55;;;;;;;;;;5029580;28;20040;-69
2021/10/20 01:56:08;;;;;;;26.50;15.35;;;;;;;;;;5027546;28;20025;-71
2021/10/20 01:58:34;;;;;;;24.60;14.30;;;;;;;;;;5026367;28;20519;-70
2021/10/20 02:01:00;;;;;;;26.50;15.88;;;;;;;;;;5027292;28;20073;-70
2021/10/20 02:03:27;;;;;;;27.60;16.30;;;;;;;;;;5026900;28;20060;-70
2021/10/20 02:05:56;;;;;;;29.15;14.82;;;;;;;;;;5029598;28;20025;-69
2021/10/20 02:08:23;;;;;;;25.20;14.82;;;;;;;;;;5028303;28;20044;-70
2021/10/20 02:10:49;;;;;;;24.83;14.48;;;;;;;;;;5029804;28;20032;-69
2021/10/20 02:13:15;;;;;;;20.65;13.27;;;;;;;;;;5026296;28;20022;-70
2021/10/20 02:15:41;;;;;;;23.45;15.27;;;;;;;;;;5027322;28;20124;-70
2021/10/20 02:18:07;;;;;;;24.33;14.88;;;;;;;;;;5029793;28;20022;-70
2021/10/20 02:20:34;;;;;;;27.52;15.88;;;;;;;;;;5030896;28;20560;-70
2021/10/20 02:23:00;;;;;;;24.92;13.95;;;;;;;;;;5030626;28;20029;-70
2021/10/20 02:25:26;;;;;;;30.42;16.05;;;;;;;;;;5032852;28;20396;-70
2021/10/20 02:27:52;;;;;;;27.70;15.35;;;;;;;;;;5033671;28;20104;-71
2021/10/20 02:30:18;;;;;;;25.13;15.57;;;;;;;;;;5032754;28;20029;-70
2021/10/20 02:32:44;;;;;;;29.08;14.88;;;;;;;;;;5047068;28;20164;-70
2021/10/20 02:35:11;;;;;;;31.27;15.90;;;;;;;;;;5032680;28;20502;-70
2021/10/20 02:37:37;;;;;;;22.27;13.85;;;;;;;;;;5032258;28;20040;-70
2021/10/20 02:40:03;;;;;;;24.80;13.35;;;;;;;;;;5030895;28;20021;-70
2021/10/20 02:42:29;;;;;;;23.80;14.73;;;;;;;;;;5033227;28;20041;-70
2021/10/20 02:44:55;;;;;;;27.40;14.63;;;;;;;;;;5035713;28;20065;-69
2021/10/20 02:47:21;;;;;;;23.85;14.15;;;;;;;;;;5031168;28;20029;-70
2021/10/20 02:49:48;;;;;;;27.67;14.63;;;;;;;;;;5028450;28;20038;-70
2021/10/20 02:52:14;;;;;;;30.08;14.27;;;;;;;;;;5018195;28;20109;-70
2021/10/20 02:54:40;;;;;;;25.30;14.90;;;;;;;;;;5033013;28;20025;-69
2021/10/20 02:57:07;;;;;;;20.55;13.85;;;;;;;;;;5032578;28;20030;-70
2021/10/20 02:59:33;;;;;;;23.58;13.30;;;;;;;;;;5047438;28;20024;-70
2021/10/20 03:01:59;;;;;;;21.00;13.27;;;;;;;;;;5029910;28;20029;-70
2021/10/20 03:04:25;;;;;;;27.80;15.73;;;;;;;;;;5022648;28;20027;-69
2021/10/20 03:06:51;;;;;;;23.63;14.52;;;;;;;;;;5022651;28;20025;-70
2021/10/20 03:09:17;;;;;;;21.05;14.52;;;;;;;;;;5030401;28;20049;-70
2021/10/20 03:11:43;;;;;;;24.60;13.20;;;;;;;;;;5033771;28;20079;-69
2021/10/20 03:14:09;;;;;;;23.20;14.63;;;;;;;;;;5032995;28;20017;-70
2021/10/20 03:16:35;;;;;;;22.65;13.20;;;;;;;;;;5042735;28;20504;-70
2021/10/20 03:19:01;;;;;;;25.63;14.00;;;;;;;;;;5029434;28;20064;-70
2021/10/20 03:21:28;;;;;;;25.20;13.32;;;;;;;;;;5032279;28;20036;-70
2021/10/20 03:23:54;;;;;;;23.42;13.70;;;;;;;;;;5031895;28;20440;-71
2021/10/20 03:26:20;;;;;;;25.85;13.88;;;;;;;;;;5029947;28;20029;-70
2021/10/20 03:28:46;;;;;;;24.80;13.70;;;;;;;;;;5024051;28;20045;-70
2021/10/20 03:31:12;;;;;;;21.35;13.32;;;;;;;;;;5024918;28;20053;-70
2021/10/20 03:33:38;;;;;;;22.67;13.00;;;;;;;;;;5032145;28;20517;-70
2021/10/20 03:36:06;;;;;;;25.92;13.73;;;;;;;;;;5029989;28;20543;-71
2021/10/20 03:38:32;;;;;;;23.05;13.90;;;;;;;;;;5030219;28;20032;-71
2021/10/20 03:40:58;;;;;;;22.52;13.32;;;;;;;;;;5029638;28;20033;-70
2021/10/20 03:43:24;;;;;;;20.35;13.25;;;;;;;;;;5032307;28;20060;-70
2021/10/20 03:45:50;;;;;;;27.92;14.05;;;;;;;;;;5028841;28;20021;-71
2021/10/20 03:48:16;;;;;;;25.33;13.63;;;;;;;;;;5030519;28;20021;-70
2021/10/20 03:50:42;;;;;;;20.80;14.13;;;;;;;;;;5025141;28;20021;-70
2021/10/20 03:53:08;;;;;;;25.10;13.98;;;;;;;;;;5016682;28;20018;-70
2021/10/20 03:55:35;;;;;;;21.58;12.73;;;;;;;;;;5027988;28;20014;-70
2021/10/20 03:58:01;;;;;;;21.73;12.90;;;;;;;;;;5029738;28;20026;-70
2021/10/20 04:00:27;;;;;;;20.08;12.68;;;;;;;;;;5028788;28;20397;-70
2021/10/20 04:02:53;;;;;;;21.48;13.48;;;;;;;;;;5030172;28;20517;-70
2021/10/20 04:05:21;;;;;;;22.30;13.63;;;;;;;;;;5030247;28;20069;-70
2021/10/20 04:07:48;;;;;;;20.30;13.90;;;;;;;;;;5031383;28;20037;-70
2021/10/20 04:10:15;;;;;;;24.42;13.52;;;;;;;;;;5031007;28;20037;-69
2021/10/20 04:12:42;;;;;;;20.60;13.20;;;;;;;;;;5031900;28;20018;-70
2021/10/20 04:15:08;;;;;;;20.65;13.98;;;;;;;;;;5024566;28;20385;-70
2021/10/20 04:17:34;;;;;;;25.70;12.88;;;;;;;;;;5029490;28;20025;-70
2021/10/20 04:20:00;;;;;;;26.52;14.10;;;;;;;;;;5030087;28;20523;-70
2021/10/20 04:22:26;;;;;;;24.00;11.93;;;;;;;;;;5030735;28;20080;-69
2021/10/20 04:24:52;;;;;;;24.08;13.20;;;;;;;;;;5030922;28;20028;-70
2021/10/20 04:27:18;;;;;;;23.95;15.07;;;;;;;;;;5023241;28;20025;-70
2021/10/20 04:29:44;;;;;;;27.10;15.70;;;;;;;;;;5027161;28;20048;-70
2021/10/20 04:32:10;;;;;;;28.40;15.23;;;;;;;;;;5028464;28;20030;-70
2021/10/20 04:34:36;;;;;;;25.13;16.10;;;;;;;;;;5024968;28;20674;-70
2021/10/20 04:37:02;;;;;;;25.38;15.02;;;;;;;;;;5028743;28;20454;-70
2021/10/20 04:39:28;;;;;;;27.85;15.95;;;;;;;;;;5028097;28;20148;-70
2021/10/20 04:41:54;;;;;;;28.98;14.05;;;;;;;;;;5025805;28;20056;-71
2021/10/20 04:44:20;;;;;;;25.83;15.40;;;;;;;;;;5030242;28;20537;-70
2021/10/20 04:46:46;;;;;;;26.05;16.25;;;;;;;;;;5027881;28;20037;-70
2021/10/20 04:49:12;;;;;;;26.88;15.20;;;;;;;;;;5023818;28;20025;-69
2021/10/20 04:51:38;;;;;;;26.65;15.70;;;;;;;;;;5029232;28;20493;-69
2021/10/20 04:54:04;;;;;;;25.88;16.02;;;;;;;;;;5027514;28;20105;-70
2021/10/20 04:56:31;;;;;;;26.27;15.25;;;;;;;;;;5026741;28;20109;-70
2021/10/20 04:58:57;;;;;;;28.98;16.23;;;;;;;;;;5030786;28;20112;-70
2021/10/20 05:01:23;;;;;;;29.95;15.70;;;;;;;;;;5025686;28;20022;-70
2021/10/20 05:03:49;;;;;;;26.02;15.35;;;;;;;;;;5026383;28;20033;-70
2021/10/20 05:06:15;;;;;;;23.45;14.60;;;;;;;;;;5029630;28;20029;-70
2021/10/20 05:08:41;;;;;;;24.27;15.45;;;;;;;;;;5024638;28;20033;-71
2021/10/20 05:11:07;;;;;;;24.58;14.90;;;;;;;;;;5029625;28;20381;-70
2021/10/20 05:13:33;;;;;;;25.30;15.88;;;;;;;;;;5029320;28;20068;-70
2021/10/20 05:15:59;;;;;;;24.02;14.20;;;;;;;;;;5045320;28;20437;-70
2021/10/20 05:18:25;;;;;;;25.80;15.18;;;;;;;;;;5027316;28;20170;-70
2021/10/20 05:20:51;;;;;;;23.92;13.15;;;;;;;;;;5027216;28;20056;-70
2021/10/20 05:23:17;;;;;;;27.60;13.88;;;;;;;;;;5026344;28;20033;-70
2021/10/20 05:25:44;;;;;;;24.25;12.30;;;;;;;;;;5021084;28;20018;-70
2021/10/20 05:28:10;;;;;;;20.75;12.32;;;;;;;;;;5027393;28;20037;-70
2021/10/20 05:30:36;;;;;;;18.95;12.50;;;;;;;;;;5030596;28;20394;-69
2021/10/20 05:33:02;;;;;;;20.42;11.73;;;;;;;;;;5071337;22;20070;-77
2021/10/20 05:35:28;;;;;;;17.73;11.80;;;;;;;;;;5004995;28;20034;-76
2021/10/20 05:37:54;;;;;;;24.35;12.85;;;;;;;;;;5000893;28;20057;-76
2021/10/20 05:40:21;;;;;;;20.40;12.95;;;;;;;;;;5022391;28;20026;-76
2021/10/20 05:42:47;;;;;;;22.33;12.40;;;;;;;;;;5006161;28;20029;-76
2021/10/20 05:45:13;;;;;;;19.20;12.07;;;;;;;;;;5021476;28;20033;-76
2021/10/20 05:47:39;;;;;;;20.58;12.75;;;;;;;;;;5006269;28;20026;-75
2021/10/20 05:50:06;;;;;;;17.92;11.45;;;;;;;;;;5006540;28;20054;-76
2021/10/20 05:52:32;;;;;;;22.02;12.88;;;;;;;;;;5014283;28;20030;-75
2021/10/20 05:54:58;;;;;;;19.15;12.05;;;;;;;;;;5011594;28;20494;-76
2021/10/20 05:57:26;;;;;;;18.20;11.82;;;;;;;;;;5013629;28;20018;-75
2021/10/20 05:59:52;;;;;;;16.83;11.63;;;;;;;;;;5011834;28;20037;-74
2021/10/20 06:02:18;;;;;;;23.95;13.05;;;;;;;;;;5013580;28;20235;-77
2021/10/20 06:04:44;;;;;;;25.27;13.65;;;;;;;;;;5014565;28;20061;-75
2021/10/20 06:07:11;;;;;;;26.10;13.77;;;;;;;;;;5016002;28;20033;-75
2021/10/20 06:09:37;;;;;;;22.40;12.93;;;;;;;;;;5013209;28;20487;-75
2021/10/20 06:12:04;;;;;;;22.17;12.90;;;;;;;;;;5030289;28;20443;-75
2021/10/20 06:14:31;;;;;;;23.85;15.75;;;;;;;;;;5016410;28;20036;-76
2021/10/20 06:16:57;;;;;;;23.25;13.65;;;;;;;;;;5014285;28;20030;-75
2021/10/20 06:19:23;;;;;;;21.83;13.73;;;;;;;;;;5003322;28;20457;-76
2021/10/20 06:21:50;;;;;;;23.10;14.07;;;;;;;;;;5011152;28;20285;-77
2021/10/20 06:24:16;;;;;;;25.05;14.82;;;;;;;;;;5015449;28;20025;-77
2021/10/20 06:26:42;;;;;;;28.38;14.68;;;;;;;;;;5016023;28;20057;-77
2021/10/20 06:29:08;;;;;;;23.70;14.07;;;;;;;;;;5001398;28;20680;-77
2021/10/20 06:31:34;;;;;;;24.90;15.70;;;;;;;;;;5014456;28;20495;-77
2021/10/20 06:34:00;;;;;;;24.20;15.82;;;;;;;;;;5009681;28;20034;-78
2021/10/20 06:36:33;;;;;;;24.75;16.45;;;;;;;;;;5015489;28;20025;-77
2021/10/20 06:39:00;;;;;;;21.30;13.98;;;;;;;;;;5006748;28;20022;-78
2021/10/20 06:41:27;;;;;;;25.90;14.43;;;;;;;;;;5010288;28;20053;-78
2021/10/20 06:43:53;;;;;;;22.75;14.55;;;;;;;;;;5018178;28;20038;-78
2021/10/20 06:46:19;;;;;;;25.45;14.43;;;;;;;;;;5011629;28;20108;-79
2021/10/20 06:48:45;;;;;;;22.85;15.15;;;;;;;;;;4998117;28;20037;-77
2021/10/20 06:51:11;;;;;;;28.88;15.73;;;;;;;;;;5013313;28;20022;-78
2021/10/20 06:53:38;;;;;;;22.55;15.95;;;;;;;;;;5014266;28;20140;-78
2021/10/20 06:56:05;;;;;;;21.95;14.73;;;;;;;;;;5007568;28;20030;-79
2021/10/20 06:58:31;;;;;;;26.42;15.70;;;;;;;;;;5005209;28;20057;-78
2021/10/20 07:00:57;;;;;;;23.65;14.90;;;;;;;;;;5030448;28;20041;-78
2021/10/20 07:03:23;;;;;;;22.70;15.27;;;;;;;;;;5011599;28;20032;-77
2021/10/20 07:05:49;;;;;;;27.80;15.38;;;;;;;;;;5012516;28;20037;-78
2021/10/20 07:08:15;;;;;;;24.88;14.85;;;;;;;;;;5008851;28;20199;-78
2021/10/20 07:10:42;;;;;;;24.27;15.40;;;;;;;;;;5012479;28;20515;-78
2021/10/20 07:13:08;;;;;;;23.33;14.88;;;;;;;;;;5012586;28;20026;-78
2021/10/20 07:15:34;;;;;;;22.48;15.32;;;;;;;;;;5012701;28;20026;-77
2021/10/20 07:18:00;;;;;;;24.75;15.38;;;;;;;;;;5012789;28;20038;-77
2021/10/20 07:20:27;;;;;;;25.23;15.77;;;;;;;;;;5011928;28;20026;-77
2021/10/20 07:22:53;;;;;;;25.55;15.55;;;;;;;;;;5007320;28;20487;-78
2021/10/20 07:25:19;;;;;;;22.73;15.05;;;;;;;;;;5012032;28;20060;-78
2021/10/20 07:27:46;;;;;;;28.88;15.50;;;;;;;;;;5011953;28;20030;-78
2021/10/20 07:30:12;;;;;;;26.33;16.17;;;;;;;;;;5007161;28;20026;-78
2021/10/20 07:32:39;;;;;;;24.33;15.57;;;;;;;;;;5026226;28;20038;-79
2021/10/20 07:35:09;;;;;;;25.95;16.27;;;;;;;;;;5001355;28;20105;-79
2021/10/20 07:37:35;;;;;;;26.80;16.27;;;;;;;;;;5006166;28;20026;-78
2021/10/20 07:40:01;;;;;;;23.77;15.98;;;;;;;;;;5005579;28;20040;-76
2021/10/20 07:42:27;;;;;;;24.60;16.15;;;;;;;;;;5005918;28;20030;-77
2021/10/20 07:44:53;;;;;;;25.17;16.88;;;;;;;;;;5006522;28;20026;-76
2021/10/20 07:47:23;;;;;;;26.77;17.20;;;;;;;;;;5001171;28;20022;-76
2021/10/20 07:49:50;;;;;;;22.73;15.00;;;;;;;;;;5008985;28;20038;-76
2021/10/20 07:52:17;;;;;;;30.33;16.92;;;;;;;;;;4995084;28;20124;-77
2021/10/20 07:54:43;;;;;;;24.50;17.33;;;;;;;;;;5006398;28;20084;-76
2021/10/20 07:57:10;;;;;;;27.50;15.98;;;;;;;;;;5011975;28;20026;-76
2021/10/20 07:59:36;;;;;;;25.98;16.40;;;;;;;;;;5009772;28;20427;-76
2021/10/20 08:02:03;;;;;;;26.58;16.23;;;;;;;;;;5011463;28;20029;-75
2021/10/20 08:04:29;;;;;;;25.00;16.30;;;;;;;;;;5007474;28;20500;-76
2021/10/20 08:06:55;;;;;;;28.27;16.55;;;;;;;;;;5003844;28;20417;-77
2021/10/20 08:09:21;;;;;;;24.92;16.35;;;;;;;;;;5000586;28;20452;-77
2021/10/20 08:11:47;;;;;;;29.98;18.15;;;;;;;;;;5003040;28;20094;-77
2021/10/20 08:14:13;;;;;;;28.70;15.60;;;;;;;;;;5000622;28;20496;-77
2021/10/20 08:16:39;;;;;;;30.27;16.63;;;;;;;;;;5007778;28;20500;-78
2021/10/20 08:19:05;;;;;;;28.48;16.98;;;;;;;;;;5000738;28;20451;-77
2021/10/20 08:21:31;;;;;;;27.25;16.08;;;;;;;;;;5011906;28;20414;-77
2021/10/20 08:23:57;;;;;;;24.77;16.63;;;;;;;;;;5001761;28;20488;-77
2021/10/20 08:26:23;;;;;;;25.85;16.38;;;;;;;;;;5008791;28;20029;-78
2021/10/20 08:28:49;;;;;;;28.30;14.32;;;;;;;;;;5007541;28;20026;-76
2021/10/20 08:31:16;;;;;;;22.98;14.95;;;;;;;;;;5004318;28;20076;-77
2021/10/20 08:33:42;;;;;;;22.75;14.80;;;;;;;;;;4994813;28;20084;-75
2021/10/20 08:36:08;;;;;;;22.90;13.20;;;;;;;;;;5003993;28;20602;-78
2021/10/20 08:38:35;;;;;;;23.05;14.65;;;;;;;;;;4999942;28;20026;-78
2021/10/20 08:41:01;;;;;;;22.60;13.52;;;;;;;;;;5008470;28;20038;-76
2021/10/20 08:43:27;;;;;;;20.55;13.60;;;;;;;;;;5005327;28;20050;-77
2021/10/20 08:45:53;;;;;;;20.65;13.60;;;;;;;;;;5009148;28;20037;-78
2021/10/20 08:48:21;;;;;;;21.10;14.25;;;;;;;;;;5003915;28;20026;-76
2021/10/20 08:51:01;;;;;;;22.55;14.57;;;;;;;;;;5010547;28;20034;-78
2021/10/20 08:53:27;;;;;;;20.40;14.02;;;;;;;;;;4999164;28;20475;-77
2021/10/20 08:55:54;;;;;;;20.77;13.90;;;;;;;;;;5009340;28;20041;-77
2021/10/20 08:58:21;;;;;;;20.58;13.40;;;;;;;;;;5000543;28;20041;-77
2021/10/20 09:00:48;;;;;;;24.02;13.90;;;;;;;;;;5007772;28;20034;-77
2021/10/20 09:03:14;;;;;;;23.00;14.25;;;;;;;;;;5002922;28;20033;-78
2021/10/20 09:05:41;;;;;;;23.70;13.93;;;;;;;;;;5004859;28;20500;-77
2021/10/20 09:08:09;;;;;;;27.20;14.40;;;;;;;;;;5003851;28;20485;-76
2021/10/20 09:10:35;;;;;;;20.42;13.73;;;;;;;;;;5013918;28;20040;-78
2021/10/20 09:13:02;;;;;;;25.80;15.40;;;;;;;;;;5010705;28;20034;-77
2021/10/20 09:15:30;;;;;;;22.38;14.55;;;;;;;;;;5004387;28;20114;-78
2021/10/20 09:18:01;;;;;;;26.58;14.15;;;;;;;;;;4999180;28;20057;-77
2021/10/20 09:20:27;;;;;;;;;;;;;;;;;;5003052;28;20052;-77
2021/10/20 09:22:56;;;;;;;18.77;11.57;;;;;;;;;;5008226;28;19949;-77
2021/10/20 09:25:22;;;;;;;21.00;13.02;;;;;;;;;;5001438;28;20031;-79
2021/10/20 09:27:48;;;;;;;22.92;13.68;;;;;;;;;;5008671;28;20040;-76
2021/10/20 09:30:15;;;;;;;23.67;13.73;;;;;;;;;;4999804;28;20294;-77
2021/10/20 09:32:41;;;;;;;22.08;14.65;;;;;;;;;;5008511;28;20128;-78
2021/10/20 09:35:11;;;;;;;23.70;13.20;;;;;;;;;;5007236;28;20022;-76
2021/10/20 09:37:40;;;;;;;27.23;13.70;;;;;;;;;;5002379;28;20096;-77
2021/10/20 09:40:07;;;;;;;22.05;13.25;;;;;;;;;;4999658;28;20018;-77
2021/10/20 09:42:53;;;;;;;21.33;12.98;;;;;;;;;;5005315;28;20029;-78
2021/10/20 09:45:20;;;;;;;20.83;13.00;;;;;;;;;;5021063;28;20069;-77
2021/10/20 09:47:46;;;;;;;18.17;14.05;;;;;;;;;;5003848;28;20037;-77
2021/10/20 09:50:12;;;;;;;23.67;11.43;;;;;;;;;;5008736;28;20041;-78
2021/10/20 09:52:51;;;;;;;22.10;12.65;;;;;;;;;;5009952;28;20029;-76
2021/10/20 09:55:28;;;;;;;23.88;12.00;;;;;;;;;;5000130;28;20035;-77
2021/10/20 09:58:16;;;;;;;19.08;11.43;;;;;;;;;;5000652;28;20480;-77
2021/10/20 10:00:42;;;;;;;21.38;11.77;;;;;;;;;;4998699;28;20109;-79
2021/10/20 10:03:09;;;;;;;19.10;11.10;;;;;;;;;;5006667;28;20465;-77
2021/10/20 10:05:36;;;;;;;21.48;12.23;;;;;;;;;;4998331;28;20508;-77
2021/10/20 10:08:02;;;;;;;17.25;10.32;;;;;;;;;;4996032;28;20116;-76
2021/10/20 10:10:28;;;;;;;17.60;11.10;;;;;;;;;;4997061;28;20401;-76
2021/10/20 10:12:57;;;;;;;20.92;11.40;;;;;;;;;;5008302;28;20033;-77
2021/10/20 10:15:24;;;;;;;16.50;11.57;;;;;;;;;;5016412;28;20026;-78
2021/10/20 10:17:55;;;;;;;19.85;11.02;;;;;;;;;;5013459;28;20165;-76
2021/10/20 10:20:22;;;;;;;16.02;11.10;;;;;;;;;;5002587;28;20033;-78
2021/10/20 10:22:52;;;;;;;25.58;12.13;;;;;;;;;;5008740;28;20114;-76
2021/10/20 10:25:22;;;;;;;15.85;10.93;;;;;;;;;;5009900;28;20309;-77
2021/10/20 10:28:07;;;;;;;21.52;11.68;;;;;;;;;;5001211;28;20515;-77
2021/10/20 10:30:45;;;;;;;19.80;9.98;;;;;;;;;;5008735;28;20026;-77
2021/10/20 10:33:15;;;;;;;19.67;11.23;;;;;;;;;;5000728;28;20634;-77
2021/10/20 10:35:41;;;;;;;16.25;10.13;;;;;;;;;;5001841;28;20021;-76
2021/10/20 10:38:07;;;;;;;19.77;9.60;;;;;;;;;;5014991;28;20222;-77
2021/10/20 10:40:33;;;;;;;20.13;10.43;;;;;;;;;;5028355;28;20026;-76
2021/10/20 10:43:07;;;;;;;19.55;9.90;;;;;;;;;;5018527;28;20382;-75
2021/10/20 10:45:33;;;;;;;20.80;10.02;;;;;;;;;;5011670;28;20103;-75
2021/10/20 10:48:07;;;;;;;20.23;10.30;;;;;;;;;;5005908;28;20444;-76
2021/10/20 10:50:40;;;;;;;18.85;9.93;;;;;;;;;;5016411;28;20112;-77
2021/10/20 10:53:06;;;;;;;27.85;13.07;;;;;;;;;;5011475;28;20114;-77
2021/10/20 10:55:32;;;;;;;19.45;10.48;;;;;;;;;;5002540;28;20083;-77
2021/10/20 10:58:02;;;;;;;18.85;8.88;;;;;;;;;;5026585;28;20314;-78
2021/10/20 11:00:32;;;;;;;24.67;9.48;;;;;;;;;;5009442;28;20060;-76
2021/10/20 11:03:00;;;;;;;17.85;8.45;;;;;;;;;;5011841;28;20057;-80
2021/10/20 11:05:28;;;;;;;19.75;8.50;;;;;;;;;;5012287;28;20029;-79
2021/10/20 11:07:59;;;;;;;18.10;7.22;;;;;;;;;;5007096;28;20029;-77
2021/10/20 11:10:25;;;;;;;23.73;7.93;;;;;;;;;;5007342;28;20037;-77
2021/10/20 11:12:55;;;;;;;18.60;7.22;;;;;;;;;;5012642;28;20030;-75
2021/10/20 11:15:21;;;;;;;15.07;6.72;;;;;;;;;;5012782;28;20040;-77
2021/10/20 11:17:47;;;;;;;19.67;6.90;;;;;;;;;;5001706;28;20413;-78
2021/10/20 11:20:15;;;;;;;21.75;7.03;;;;;;;;;;5002097;28;20026;-77
2021/10/20 11:22:45;;;;;;;19.73;5.90;;;;;;;;;;5026399;28;20099;-76
2021/10/20 11:25:12;;;;;;;28.83;6.80;;;;;;;;;;5006889;28;20440;-77
2021/10/20 11:27:38;;;;;;;23.08;6.47;;;;;;;;;;5007924;28;20511;-78
2021/10/20 11:30:08;;;;;;;24.55;5.40;;;;;;;;;;5008499;28;20083;-76
2021/10/20 11:32:35;;;;;;;24.90;5.43;;;;;;;;;;5010876;28;20284;-78
2021/10/20 11:35:01;;;;;;;23.95;5.68;;;;;;;;;;5009959;28;20117;-78
2021/10/20 11:37:28;;;;;;;23.95;6.70;;;;;;;;;;5005764;28;20026;-77
2021/10/20 11:39:58;;;;;;;25.05;5.68;;;;;;;;;;5004253;28;20026;-78
2021/10/20 11:42:25;;;;;;;22.80;6.47;;;;;;;;;;5012863;28;20117;-78
2021/10/20 11:44:52;;;;;;;27.52;8.13;;;;;;;;;;5006998;28;20029;-76
2021/10/20 11:47:18;;;;;;;24.40;5.93;;;;;;;;;;5010585;28;20030;-77
2021/10/20 11:49:45;;;;;;;26.23;6.57;;;;;;;;;;5005270;28;20053;-76
2021/10/20 11:52:12;;;;;;;20.13;6.05;;;;;;;;;;5011472;28;20021;-78
2021/10/20 11:54:38;;;;;;;24.38;6.90;;;;;;;;;;5007697;28;20512;-77
2021/10/20 11:57:07;;;;;;;27.30;5.43;;;;;;;;;;5010426;28;20018;-76
2021/10/20 11:59:34;;;;;;;17.77;6.13;;;;;;;;;;5006627;28;20048;-78
2021/10/20 12:02:01;;;;;;;22.88;6.28;;;;;;;;;;5006628;28;20034;-77
2021/10/20 12:04:27;;;;;;;17.75;5.47;;;;;;;;;;5007811;28;20065;-74
2021/10/20 12:06:57;;;;;;;16.30;5.03;;;;;;;;;;5009060;28;20038;-79
2021/10/20 12:09:24;;;;;;;21.02;5.68;;;;;;;;;;4996585;28;20053;-75
2021/10/20 12:11:50;;;;;;;28.73;6.00;;;;;;;;;;5006946;28;20496;-79
2021/10/20 12:14:17;;;;;;;20.85;6.07;;;;;;;;;;5026571;28;20037;-76
2021/10/20 12:16:44;;;;;;;16.45;5.57;;;;;;;;;;5003333;28;20125;-77
2021/10/20 12:19:11;;;;;;;11.30;5.53;;;;;;;;;;5002985;28;20018;-77
2021/10/20 12:21:41;;;;;;;18.38;6.57;;;;;;;;;;5021377;28;20073;-78
2021/10/20 12:24:08;;;;;;;16.42;6.18;;;;;;;;;;5001636;28;20014;-78
2021/10/20 12:26:34;;;;;;;19.33;5.65;;;;;;;;;;5003921;28;20037;-78
2021/10/20 12:29:01;;;;;;;16.55;6.30;;;;;;;;;;5008095;28;20022;-77
2021/10/20 12:31:28;;;;;;;18.33;5.35;;;;;;;;;;5006064;28;20026;-78
2021/10/20 12:33:55;;;;;;;16.13;5.80;;;;;;;;;;4999778;28;20058;-78
2021/10/20 12:36:22;;;;;;;17.77;5.20;;;;;;;;;;5009393;28;20034;-76
2021/10/20 12:38:49;;;;;;;17.63;5.53;;;;;;;;;;5004639;28;20117;-78
2021/10/20 12:41:19;;;;;;;18.25;5.03;;;;;;;;;;5007008;28;20028;-78
2021/10/20 12:43:50;;;;;;;14.30;5.28;;;;;;;;;;5006087;28;20041;-78
2021/10/20 12:46:18;;;;;;;17.17;4.55;;;;;;;;;;5002143;28;20030;-76
2021/10/20 12:48:44;;;;;;;15.68;5.40;;;;;;;;;;4998218;28;20033;-78
2021/10/20 12:51:11;;;;;;;22.73;5.53;;;;;;;;;;4998943;28;20042;-76
2021/10/20 12:53:41;;;;;;;18.27;4.68;;;;;;;;;;5000638;28;20037;-76
2021/10/20 12:56:09;;;;;;;12.70;5.22;;;;;;;;;;5012638;28;20080;-77
2021/10/20 12:58:35;;;;;;;17.20;4.90;;;;;;;;;;4995788;28;20030;-76
2021/10/20 13:01:01;;;;;;;22.83;5.93;;;;;;;;;;4992665;28;20026;-76
2021/10/20 13:03:29;;;;;;;13.40;4.93;;;;;;;;;;4994571;28;20412;-75
2021/10/20 13:05:55;;;;;;;18.60;5.65;;;;;;;;;;4992998;28;20033;-76
2021/10/20 13:08:21;;;;;;;15.82;5.22;;;;;;;;;;4993112;28;20029;-77
2021/10/20 13:10:48;;;;;;;16.30;5.43;;;;;;;;;;4992409;28;20034;-75
2021/10/20 13:13:14;;;;;;;17.15;4.70;;;;;;;;;;5005209;28;20113;-75
2021/10/20 13:15:40;;;;;;;15.05;5.60;;;;;;;;;;5007543;28;20079;-73
2021/10/20 13:18:06;;;;;;;19.58;6.22;;;;;;;;;;4996800;28;20018;-75
2021/10/20 13:20:33;;;;;;;20.15;6.13;;;;;;;;;;5007612;28;20100;-76
2021/10/20 13:23:03;;;;;;;18.35;6.88;;;;;;;;;;5005520;28;20132;-75
2021/10/20 13:25:29;;;;;;;16.33;5.22;;;;;;;;;;5017637;28;20045;-76
2021/10/20 13:27:55;;;;;;;20.17;5.97;;;;;;;;;;5007182;28;20030;-76
2021/10/20 13:30:22;;;;;;;17.77;5.35;;;;;;;;;;5008130;28;20022;-76
2021/10/20 13:32:48;;;;;;;14.85;6.05;;;;;;;;;;5021115;28;20166;-75
2021/10/20 13:35:14;;;;;;;16.13;5.82;;;;;;;;;;5005375;28;20022;-76
2021/10/20 13:37:41;;;;;;;19.55;6.18;;;;;;;;;;5005246;28;20014;-76
2021/10/20 13:40:07;;;;;;;14.85;6.20;;;;;;;;;;5006162;28;20026;-77
2021/10/20 13:42:33;;;;;;;16.52;5.00;;;;;;;;;;5008353;28;20022;-76
2021/10/20 13:45:04;;;;;;;15.90;5.88;;;;;;;;;;5007100;28;20121;-77
2021/10/20 13:47:31;;;;;;;20.98;5.95;;;;;;;;;;5005622;28;20556;-76
2021/10/20 13:49:57;;;;;;;17.30;4.80;;;;;;;;;;5001269;28;20042;-77
2021/10/20 13:52:24;;;;;;;27.75;6.72;;;;;;;;;;4999831;28;20029;-79
2021/10/20 13:54:50;;;;;;;23.48;4.97;;;;;;;;;;5010034;28;20022;-81
2021/10/20 13:57:16;;;;;;;18.92;4.35;;;;;;;;;;5002523;28;20026;-81
2021/10/20 13:59:42;;;;;;;10.30;3.25;;;;;;;;;;5007022;28;20054;-78
2021/10/20 14:02:08;;;;;;;22.35;5.10;;;;;;;;;;5009410;28;20487;-80
2021/10/20 14:04:37;;;;;;;30.60;5.53;;;;;;;;;;5007782;28;20026;-84
2021/10/20 14:07:06;;;;;;;33.03;6.18;;;;;;;;;;5010265;28;20037;-81
2021/10/20 14:09:32;;;;;;;33.25;7.07;;;;;;;;;;5000301;28;20401;-85
2021/10/20 14:11:58;;;;;;;21.98;6.13;;;;;;;;;;5027357;28;20037;-80
2021/10/20 14:14:25;;;;;;;28.13;6.63;;;;;;;;;;5014516;28;20034;-85
2021/10/20 14:16:51;;;;;;;24.65;6.00;;;;;;;;;;5010024;28;20583;-85
2021/10/20 14:19:17;;;;;;;23.73;5.45;;;;;;;;;;5007822;28;20093;-81